Time;durP1;ratioP1;P1;durP2;ratioP2;P2;SDS_P1;SDS_P2;PMS_P1;PMS_P2;Temp;Humidity;BMP_temperature;BMP_pressure;BME280_temperature;BME280_humidity;BME280_pressure;Samples;Min_cycle;Max_cycle;Signal;HPM_P1;HPM_P2
2024/01/21 00:01:54;;;;;;;9.30;6.03;;;0.00;99.90;;;;;;5011916;28;20209;-64
2024/01/21 00:04:22;;;;;;;12.23;7.30;;;0.00;99.90;;;;;;5011910;28;20253;-65
2024/01/21 00:06:49;;;;;;;9.23;6.50;;;-0.10;99.90;;;;;;5011282;28;20238;-65
2024/01/21 00:09:16;;;;;;;12.67;7.77;;;-0.20;99.90;;;;;;5011893;28;20253;-65
2024/01/21 00:11:42;;;;;;;12.60;6.77;;;-0.30;99.90;;;;;;5011731;28;20338;-65
2024/01/21 00:14:09;;;;;;;11.97;8.30;;;-0.40;99.90;;;;;;5011632;28;20199;-65
2024/01/21 00:16:36;;;;;;;11.90;7.83;;;-0.50;99.90;;;;;;5011183;28;20223;-66
2024/01/21 00:19:03;;;;;;;12.73;7.83;;;-0.60;99.90;;;;;;5011424;28;20206;-64
2024/01/21 00:21:31;;;;;;;13.07;8.00;;;-0.60;99.90;;;;;;5011625;28;20389;-64
2024/01/21 00:23:58;;;;;;;13.97;6.67;;;-0.70;99.90;;;;;;5011363;28;20226;-66
2024/01/21 00:26:25;;;;;;;15.73;7.80;;;-0.80;99.90;;;;;;5011135;28;20223;-66
2024/01/21 00:28:51;;;;;;;11.17;7.23;;;-0.80;99.90;;;;;;5011331;28;20211;-65
2024/01/21 00:31:18;;;;;;;10.33;7.33;;;-0.90;99.90;;;;;;5011434;28;20209;-65
2024/01/21 00:33:44;;;;;;;12.10;7.13;;;-1.00;99.90;;;;;;5011050;28;20210;-65
2024/01/21 00:36:12;;;;;;;11.97;6.63;;;-1.10;99.90;;;;;;5010895;28;20604;-64
2024/01/21 00:38:41;;;;;;;12.20;6.90;;;-1.10;99.90;;;;;;5011297;28;20294;-65
2024/01/21 00:41:08;;;;;;;13.57;7.77;;;-1.20;99.90;;;;;;5003658;28;20596;-65
2024/01/21 00:43:34;;;;;;;12.20;7.37;;;-1.20;99.90;;;;;;5011067;28;20708;-65
2024/01/21 00:46:05;;;;;;;15.33;8.37;;;-1.30;99.90;;;;;;5010716;28;20226;-65
2024/01/21 00:48:31;;;;;;;11.37;7.30;;;-1.30;99.90;;;;;;5011405;28;20207;-64
2024/01/21 00:50:58;;;;;;;13.10;7.83;;;-1.40;99.90;;;;;;5010951;28;20207;-64
2024/01/21 00:53:25;;;;;;;10.90;7.03;;;-1.40;99.90;;;;;;5011174;28;20203;-64
2024/01/21 00:55:53;;;;;;;12.07;7.10;;;-1.40;99.90;;;;;;5010537;28;20234;-66
2024/01/21 00:58:20;;;;;;;10.00;6.47;;;-1.40;99.90;;;;;;5011029;28;20560;-65
2024/01/21 01:00:46;;;;;;;10.13;6.27;;;-1.50;99.90;;;;;;5011125;28;20306;-65
2024/01/21 01:03:13;;;;;;;13.57;6.60;;;-1.50;99.90;;;;;;5010898;28;20700;-64
2024/01/21 01:05:40;;;;;;;9.33;6.03;;;-1.60;99.90;;;;;;5010590;28;20237;-65
2024/01/21 01:08:07;;;;;;;7.57;5.80;;;-1.60;99.90;;;;;;5011061;28;20237;-65
2024/01/21 01:10:33;;;;;;;9.43;5.83;;;-1.70;99.90;;;;;;5014905;28;20724;-65
2024/01/21 01:13:01;;;;;;;8.33;5.67;;;-1.70;99.90;;;;;;5014563;28;20215;-65
2024/01/21 01:15:28;;;;;;;7.53;5.47;;;-1.70;99.90;;;;;;5014389;28;20285;-66
2024/01/21 01:17:55;;;;;;;12.97;6.77;;;-1.80;99.90;;;;;;5014653;28;20207;-65
2024/01/21 01:20:21;;;;;;;11.53;6.90;;;-1.80;99.90;;;;;;5014418;28;20207;-65
2024/01/21 01:22:48;;;;;;;10.97;6.47;;;-1.90;99.90;;;;;;5014553;28;20285;-65
2024/01/21 01:25:15;;;;;;;9.53;6.67;;;-2.00;99.90;;;;;;5013961;28;20227;-65
2024/01/21 01:27:41;;;;;;;9.40;5.90;;;-2.00;99.90;;;;;;5014458;28;20215;-64
2024/01/21 01:30:11;;;;;;;7.10;5.63;;;-1.90;99.90;;;;;;5014254;28;20636;-65
2024/01/21 01:32:38;;;;;;;9.97;6.60;;;-1.90;99.90;;;;;;5013795;28;20545;-65
2024/01/21 01:35:05;;;;;;;11.17;6.97;;;-1.90;99.90;;;;;;5013821;28;20643;-65
2024/01/21 01:37:32;;;;;;;10.47;6.57;;;-1.90;99.90;;;;;;5014231;28;20281;-64
2024/01/21 01:39:59;;;;;;;11.00;7.27;;;-1.90;99.90;;;;;;5014191;28;20215;-65
2024/01/21 01:42:26;;;;;;;13.57;8.07;;;-1.90;99.90;;;;;;5014306;28;20256;-65
2024/01/21 01:44:52;;;;;;;14.00;7.77;;;-1.90;99.90;;;;;;5013828;28;20242;-65
2024/01/21 01:47:20;;;;;;;10.57;7.13;;;-1.80;99.90;;;;;;5014285;28;20207;-65
2024/01/21 01:49:47;;;;;;;12.80;7.90;;;-1.90;99.90;;;;;;5014100;28;20210;-65
2024/01/21 01:52:16;;;;;;;12.17;7.27;;;-2.00;99.90;;;;;;5013995;28;20199;-65
2024/01/21 01:54:45;;;;;;;11.60;6.77;;;-2.10;99.90;;;;;;5013746;28;20203;-64
2024/01/21 01:57:14;;;;;;;12.30;7.17;;;-2.10;99.90;;;;;;5013987;28;20207;-64
2024/01/21 01:59:41;;;;;;;10.20;6.37;;;-2.00;99.90;;;;;;5013734;28;20286;-63
2024/01/21 02:02:08;;;;;;;12.30;7.20;;;-1.60;99.90;;;;;;5013722;28;20269;-65
2024/01/21 02:04:36;;;;;;;14.13;7.87;;;-2.00;99.90;;;;;;5013533;28;20277;-65
2024/01/21 02:07:03;;;;;;;12.30;7.50;;;-2.00;99.90;;;;;;5013358;28;20203;-65
2024/01/21 02:09:30;;;;;;;10.73;7.20;;;-2.00;99.90;;;;;;5013971;28;20269;-65
2024/01/21 02:11:57;;;;;;;12.67;7.33;;;-2.10;99.90;;;;;;5013813;28;20211;-65
2024/01/21 02:14:24;;;;;;;16.10;6.60;;;-2.20;99.90;;;;;;5013908;28;20293;-65
2024/01/21 02:16:50;;;;;;;13.17;7.07;;;-2.30;99.90;;;;;;5013177;28;20227;-64
2024/01/21 02:19:26;;;;;;;10.10;7.03;;;-2.40;99.90;;;;;;5013347;28;20599;-65
2024/01/21 02:21:54;;;;;;;14.10;7.97;;;-2.50;99.90;;;;;;5013634;28;20305;-65
2024/01/21 02:24:28;;;;;;;12.37;7.67;;;-2.60;99.90;;;;;;5013674;28;20207;-66
2024/01/21 02:26:54;;;;;;;10.67;6.90;;;-2.70;99.90;;;;;;5012993;28;20234;-65
2024/01/21 02:29:21;;;;;;;11.30;7.07;;;-2.80;99.90;;;;;;5013365;28;20206;-64
2024/01/21 02:31:48;;;;;;;12.23;7.53;;;-2.80;99.90;;;;;;5013151;28;20218;-65
2024/01/21 02:34:14;;;;;;;11.53;7.63;;;-2.80;99.90;;;;;;5013176;28;20203;-65
2024/01/21 02:36:41;;;;;;;10.90;7.00;;;-2.90;99.90;;;;;;5013017;28;20231;-64
2024/01/21 02:39:08;;;;;;;11.57;7.03;;;-2.90;99.90;;;;;;5005388;28;20199;-65
2024/01/21 02:41:36;;;;;;;11.63;6.90;;;-3.00;99.90;;;;;;5013228;28;20298;-67
2024/01/21 02:44:02;;;;;;;12.50;7.03;;;-3.00;99.90;;;;;;5013080;28;20243;-65
2024/01/21 02:46:29;;;;;;;11.97;6.17;;;-3.00;99.90;;;;;;5012433;28;20230;-66
2024/01/21 02:48:56;;;;;;;10.60;6.77;;;-3.10;99.90;;;;;;5013161;28;20294;-64
2024/01/21 02:51:22;;;;;;;11.83;6.60;;;-3.10;99.90;;;;;;5012981;28;20203;-65
2024/01/21 02:53:49;;;;;;;11.67;6.43;;;-3.10;99.90;;;;;;5012861;28;20211;-63
2024/01/21 02:56:22;;;;;;;11.20;6.33;;;-3.10;99.90;;;;;;5012523;28;20708;-65
2024/01/21 02:58:51;;;;;;;11.60;6.37;;;-3.10;99.90;;;;;;5012937;28;20211;-64
2024/01/21 03:01:18;;;;;;;10.77;6.40;;;-3.10;99.90;;;;;;5013197;28;20199;-65
2024/01/21 03:03:45;;;;;;;15.40;7.40;;;-3.00;99.90;;;;;;5012835;28;20203;-64
2024/01/21 03:06:11;;;;;;;10.40;6.33;;;-3.00;99.90;;;;;;5012535;28;20229;-65
2024/01/21 03:08:38;;;;;;;10.00;6.10;;;-2.90;99.90;;;;;;5012494;28;20692;-65
2024/01/21 03:11:05;;;;;;;7.53;5.13;;;-2.90;99.90;;;;;;5012667;28;20565;-65
2024/01/21 03:13:32;;;;;;;8.43;5.07;;;-2.80;99.90;;;;;;5012548;28;20261;-64
2024/01/21 03:16:01;;;;;;;7.33;4.87;;;-2.80;99.90;;;;;;5011851;28;20227;-65
2024/01/21 03:18:27;;;;;;;6.60;4.47;;;-2.80;99.90;;;;;;5012702;28;20203;-65
2024/01/21 03:20:54;;;;;;;5.40;4.30;;;-2.80;99.90;;;;;;5012256;28;20265;-65
2024/01/21 03:23:21;;;;;;;7.03;4.07;;;-2.70;99.90;;;;;;5012526;28;20199;-65
2024/01/21 03:25:47;;;;;;;7.23;4.33;;;-2.80;99.90;;;;;;5011874;28;20227;-67
2024/01/21 03:28:14;;;;;;;5.50;3.57;;;-2.80;99.90;;;;;;5012218;28;20209;-63
2024/01/21 03:30:41;;;;;;;5.30;3.80;;;-2.70;99.90;;;;;;5012305;28;20268;-64
2024/01/21 03:33:09;;;;;;;4.50;3.30;;;-2.70;99.90;;;;;;5011956;28;20202;-65
2024/01/21 03:35:35;;;;;;;4.10;3.10;;;-2.60;99.90;;;;;;5012002;28;20284;-65
2024/01/21 03:38:02;;;;;;;6.33;3.80;;;-2.60;99.90;;;;;;5011988;28;20280;-64
2024/01/21 03:40:29;;;;;;;6.50;4.63;;;-2.60;99.90;;;;;;5012062;28;20684;-65
2024/01/21 03:42:55;;;;;;;7.40;4.80;;;-2.60;99.90;;;;;;5012334;28;20685;-65
2024/01/21 03:45:22;;;;;;;7.80;5.03;;;-2.60;99.90;;;;;;5011799;28;20223;-64
2024/01/21 03:47:49;;;;;;;6.87;4.53;;;-2.60;99.90;;;;;;5012015;28;20298;-65
2024/01/21 03:50:19;;;;;;;7.77;4.43;;;-2.50;99.90;;;;;;5012135;28;20285;-65
2024/01/21 03:52:46;;;;;;;7.00;4.33;;;-2.50;99.90;;;;;;5011909;28;20652;-65
2024/01/21 03:55:13;;;;;;;6.27;3.90;;;-2.40;99.90;;;;;;5011744;28;20223;-62
2024/01/21 03:57:40;;;;;;;4.83;3.60;;;-2.40;99.90;;;;;;5011613;28;20207;-62
2024/01/21 04:00:09;;;;;;;4.97;3.80;;;-2.40;99.90;;;;;;5011723;28;20275;-62
2024/01/21 04:02:35;;;;;;;5.97;4.00;;;-2.50;99.90;;;;;;5011900;28;20215;-62
2024/01/21 04:05:02;;;;;;;5.20;3.80;;;-2.40;99.90;;;;;;5011449;28;20234;-62
2024/01/21 04:07:31;;;;;;;6.27;4.10;;;-2.40;99.90;;;;;;5011713;28;20266;-63
2024/01/21 04:09:58;;;;;;;6.73;4.23;;;-2.50;99.90;;;;;;5011483;28;20211;-62
2024/01/21 04:12:24;;;;;;;5.90;4.17;;;-2.50;99.90;;;;;;5011758;28;20203;-62
2024/01/21 04:14:51;;;;;;;13.90;6.83;;;-2.50;99.90;;;;;;5011094;28;20210;-63
2024/01/21 04:17:18;;;;;;;5.20;4.30;;;-2.40;99.90;;;;;;5011661;28;20629;-62
2024/01/21 04:19:45;;;;;;;6.27;4.70;;;-2.30;99.90;;;;;;5011516;28;20207;-62
2024/01/21 04:22:12;;;;;;;6.10;4.50;;;-2.30;99.90;;;;;;5003618;28;20203;-62
2024/01/21 04:24:40;;;;;;;6.90;4.73;;;-2.30;99.90;;;;;;5011388;28;20265;-63
2024/01/21 04:27:07;;;;;;;6.57;4.37;;;-2.20;99.90;;;;;;5011076;28;20265;-63
2024/01/21 04:29:34;;;;;;;7.37;4.40;;;-2.20;99.90;;;;;;5011399;28;20735;-62
2024/01/21 04:32:00;;;;;;;6.73;4.63;;;-2.20;99.90;;;;;;5011391;28;20249;-63
2024/01/21 04:34:27;;;;;;;5.37;4.10;;;-2.20;99.90;;;;;;5011391;28;20210;-63
2024/01/21 04:36:54;;;;;;;5.50;4.00;;;-2.20;99.90;;;;;;5010889;28;20281;-62
2024/01/21 04:39:21;;;;;;;6.50;4.00;;;-2.30;99.90;;;;;;5011759;28;20218;-62
2024/01/21 04:41:50;;;;;;;5.70;3.80;;;-2.40;99.90;;;;;;5011411;28;20284;-62
2024/01/21 04:44:16;;;;;;;6.33;4.03;;;-2.40;99.90;;;;;;5014871;28;20207;-62
2024/01/21 04:46:43;;;;;;;5.93;3.87;;;-2.40;99.90;;;;;;5014838;28;20227;-62
2024/01/21 04:49:09;;;;;;;6.13;4.37;;;-2.40;99.90;;;;;;5015155;28;20233;-63
2024/01/21 04:51:37;;;;;;;5.70;4.20;;;-2.40;99.90;;;;;;5015135;28;20681;-62
2024/01/21 04:54:04;;;;;;;6.40;4.43;;;-2.40;99.90;;;;;;5015261;28;20210;-62
2024/01/21 04:56:31;;;;;;;6.10;4.40;;;-2.30;99.90;;;;;;5014748;28;20230;-62
2024/01/21 04:58:59;;;;;;;6.50;4.77;;;-2.30;99.90;;;;;;5015120;28;20206;-62
2024/01/21 05:01:26;;;;;;;7.17;4.53;;;-2.20;99.90;;;;;;5015051;28;20207;-63
2024/01/21 05:03:53;;;;;;;7.00;4.47;;;-2.10;99.90;;;;;;5014897;28;20314;-62
2024/01/21 05:06:20;;;;;;;6.60;4.60;;;-2.20;99.90;;;;;;5014345;28;20285;-62
2024/01/21 05:08:47;;;;;;;5.33;4.27;;;-2.20;99.90;;;;;;5014783;28;20690;-63
2024/01/21 05:11:13;;;;;;;8.13;4.67;;;-2.10;99.90;;;;;;5015088;28;20317;-61
2024/01/21 05:13:40;;;;;;;8.67;5.37;;;-2.10;99.90;;;;;;5014909;28;20214;-63
2024/01/21 05:16:08;;;;;;;8.07;5.43;;;-2.20;99.90;;;;;;5014363;28;20223;-61
2024/01/21 05:18:37;;;;;;;8.20;5.17;;;-2.20;99.90;;;;;;5014692;28;20202;-62
2024/01/21 05:21:04;;;;;;;6.87;5.00;;;-2.10;99.90;;;;;;5014695;28;20260;-61
2024/01/21 05:23:31;;;;;;;7.73;4.63;;;-2.10;99.90;;;;;;5014708;28;20207;-62
2024/01/21 05:25:57;;;;;;;8.47;4.83;;;-2.00;99.90;;;;;;5014273;28;20615;-62
2024/01/21 05:28:24;;;;;;;6.40;4.33;;;-1.90;99.90;;;;;;5014445;28;20207;-63
2024/01/21 05:30:51;;;;;;;5.50;4.17;;;-1.80;99.90;;;;;;5014386;28;20738;-62
2024/01/21 05:33:19;;;;;;;6.20;4.23;;;-1.80;99.90;;;;;;5014438;28;20346;-62
2024/01/21 05:35:45;;;;;;;6.53;4.57;;;-1.70;99.90;;;;;;5014301;28;20234;-61
2024/01/21 05:38:12;;;;;;;6.40;4.50;;;-1.70;99.90;;;;;;5014319;28;20211;-61
2024/01/21 05:40:39;;;;;;;7.13;4.63;;;-1.60;99.90;;;;;;5014297;28;20219;-62
2024/01/21 05:43:05;;;;;;;6.77;4.47;;;-1.60;99.90;;;;;;5014180;28;20210;-62
2024/01/21 05:45:32;;;;;;;6.83;4.60;;;-1.70;99.90;;;;;;5014197;28;20234;-62
2024/01/21 05:47:59;;;;;;;6.13;4.30;;;-1.60;99.90;;;;;;5013951;28;20218;-63
2024/01/21 05:50:27;;;;;;;8.53;4.60;;;-1.60;99.90;;;;;;5014137;28;20203;-62
2024/01/21 05:52:53;;;;;;;5.50;4.20;;;-1.60;99.90;;;;;;5013953;28;20677;-61
2024/01/21 05:55:20;;;;;;;6.20;4.43;;;-1.60;99.90;;;;;;5013043;28;20230;-61
2024/01/21 05:57:47;;;;;;;6.93;4.77;;;-1.50;99.90;;;;;;5013817;28;20214;-61
2024/01/21 06:00:14;;;;;;;8.43;5.37;;;-1.60;99.90;;;;;;5005647;28;20203;-62
2024/01/21 06:02:41;;;;;;;7.43;5.07;;;-1.60;99.90;;;;;;5014081;28;20218;-63
2024/01/21 06:05:08;;;;;;;7.97;5.13;;;-1.50;99.90;;;;;;5013587;28;20231;-62
2024/01/21 06:07:36;;;;;;;7.73;5.30;;;-1.50;99.90;;;;;;5013646;28;20274;-62
2024/01/21 06:10:03;;;;;;;8.10;5.40;;;-1.50;99.90;;;;;;5013701;28;20258;-61
2024/01/21 06:12:30;;;;;;;7.67;5.10;;;-1.50;99.90;;;;;;5013528;28;20215;-62
2024/01/21 06:14:57;;;;;;;7.23;5.30;;;-1.50;99.90;;;;;;5013226;28;20652;-62
2024/01/21 06:17:23;;;;;;;8.53;5.23;;;-1.50;99.90;;;;;;5013688;28;20206;-62
2024/01/21 06:19:50;;;;;;;7.60;5.60;;;-1.40;99.90;;;;;;5013665;28;20234;-62
2024/01/21 06:22:17;;;;;;;5.50;4.73;;;-1.40;99.90;;;;;;5013315;28;20619;-62
2024/01/21 06:24:45;;;;;;;7.37;5.63;;;-1.40;99.90;;;;;;5013422;28;20704;-62
2024/01/21 06:27:11;;;;;;;8.37;5.23;;;-1.40;99.90;;;;;;5012941;28;20264;-62
2024/01/21 06:29:38;;;;;;;5.77;4.70;;;-1.40;99.90;;;;;;5013336;28;20211;-62
2024/01/21 06:32:06;;;;;;;6.70;4.80;;;-1.40;99.90;;;;;;5013334;28;20206;-61
2024/01/21 06:34:32;;;;;;;6.47;4.77;;;-1.50;99.90;;;;;;5013372;28;20207;-62
2024/01/21 06:36:59;;;;;;;7.10;4.87;;;-1.50;99.90;;;;;;5012926;28;20206;-61
2024/01/21 06:39:26;;;;;;;7.27;5.10;;;-1.50;99.90;;;;;;5013243;28;20206;-62
2024/01/21 06:41:54;;;;;;;6.70;5.23;;;-1.60;99.90;;;;;;5012860;28;20565;-62
2024/01/21 06:44:20;;;;;;;8.83;5.83;;;-1.60;99.90;;;;;;5013086;28;20211;-62
2024/01/21 06:46:47;;;;;;;11.13;6.53;;;-1.60;99.90;;;;;;5012867;28;20230;-61
2024/01/21 06:49:14;;;;;;;9.77;6.90;;;-1.80;99.90;;;;;;5012972;28;20210;-63
2024/01/21 06:51:46;;;;;;;7.90;5.70;;;-2.00;99.90;;;;;;5013016;28;20294;-62
2024/01/21 06:54:13;;;;;;;8.43;5.37;;;-2.10;99.90;;;;;;5012744;28;20211;-62
2024/01/21 06:56:40;;;;;;;7.77;5.57;;;-2.20;99.90;;;;;;5012290;28;20227;-62
2024/01/21 06:59:08;;;;;;;9.10;6.17;;;-2.50;99.90;;;;;;5012949;28;20203;-62
2024/01/21 07:01:35;;;;;;;10.03;6.57;;;-2.60;99.90;;;;;;5012629;28;20669;-62
2024/01/21 07:04:01;;;;;;;9.73;6.90;;;-2.70;99.90;;;;;;5012459;28;20585;-62
2024/01/21 07:06:28;;;;;;;9.50;6.50;;;-2.90;99.90;;;;;;5011261;28;20231;-63
2024/01/21 07:08:55;;;;;;;10.80;6.70;;;-2.90;99.90;;;;;;5012576;28;20253;-62
2024/01/21 07:11:22;;;;;;;8.63;6.57;;;-3.00;99.90;;;;;;5012470;28;20298;-61
2024/01/21 07:13:48;;;;;;;12.33;6.97;;;-3.10;99.90;;;;;;5012774;28;20262;-62
2024/01/21 07:16:16;;;;;;;8.00;5.43;;;-3.10;99.90;;;;;;5012525;28;20226;-62
2024/01/21 07:18:43;;;;;;;7.57;5.10;;;-3.10;99.90;;;;;;5012605;28;20638;-62
2024/01/21 07:21:10;;;;;;;10.77;5.37;;;-3.10;99.90;;;;;;5012310;28;20213;-61
2024/01/21 07:23:38;;;;;;;7.10;5.53;;;-3.10;99.90;;;;;;5012191;28;20232;-62
2024/01/21 07:26:05;;;;;;;8.43;5.30;;;-3.20;99.90;;;;;;5012038;28;20649;-62
2024/01/21 07:28:31;;;;;;;7.70;5.80;;;-3.20;99.90;;;;;;5012405;28;20214;-61
2024/01/21 07:30:58;;;;;;;7.57;5.50;;;-3.10;99.90;;;;;;5012207;28;20206;-61
2024/01/21 07:33:26;;;;;;;9.20;5.77;;;-3.00;99.90;;;;;;5012094;28;20199;-61
2024/01/21 07:35:53;;;;;;;7.33;5.43;;;-2.90;99.90;;;;;;5011754;28;20227;-62
2024/01/21 07:38:19;;;;;;;8.17;5.87;;;-2.80;99.90;;;;;;5012182;28;20210;-62
2024/01/21 07:40:47;;;;;;;8.63;6.20;;;-2.60;99.90;;;;;;5012404;28;20206;-61
2024/01/21 07:43:14;;;;;;;8.13;6.20;;;-2.50;99.90;;;;;;5011811;28;20214;-62
2024/01/21 07:45:41;;;;;;;11.17;7.27;;;-2.40;99.90;;;;;;5011820;28;20325;-62
2024/01/21 07:48:08;;;;;;;14.33;7.10;;;-2.20;99.90;;;;;;5011616;28;20218;-62
2024/01/21 07:50:36;;;;;;;8.70;6.30;;;-2.20;99.90;;;;;;5012026;28;20437;-61
2024/01/21 07:53:03;;;;;;;8.57;6.20;;;-2.10;99.90;;;;;;5011704;28;20210;-62
2024/01/21 07:55:30;;;;;;;8.23;6.03;;;-2.00;99.90;;;;;;5011866;28;20330;-62
2024/01/21 07:57:56;;;;;;;8.03;5.80;;;-1.80;99.90;;;;;;5011986;28;20541;-62
2024/01/21 08:00:22;;;;;;;9.43;5.80;;;-1.70;99.90;;;;;;5011891;28;20198;-62
2024/01/21 08:02:49;;;;;;;10.47;6.47;;;-1.70;99.90;;;;;;5011721;28;20199;-62
2024/01/21 08:05:16;;;;;;;8.73;6.80;;;-1.60;99.90;;;;;;5011190;28;20246;-62
2024/01/21 08:07:44;;;;;;;9.13;6.40;;;-1.50;99.90;;;;;;5011552;28;20230;-62
2024/01/21 08:10:11;;;;;;;13.73;7.03;;;-1.30;99.90;;;;;;5011844;28;20211;-61
2024/01/21 08:12:37;;;;;;;11.70;7.83;;;-1.20;99.90;;;;;;5011564;28;20207;-61
2024/01/21 08:15:05;;;;;;;12.87;7.73;;;-1.00;99.90;;;;;;5011310;28;20227;-61
2024/01/21 08:17:32;;;;;;;11.70;8.20;;;-0.90;99.90;;;;;;5011156;28;20203;-61
2024/01/21 08:19:59;;;;;;;11.33;7.57;;;-0.70;99.90;;;;;;5011421;28;20211;-61
2024/01/21 08:22:26;;;;;;;10.77;7.23;;;-0.50;99.90;;;;;;5011604;28;20206;-62
2024/01/21 08:24:54;;;;;;;13.57;8.80;;;-0.40;99.90;;;;;;5011266;28;20218;-61
2024/01/21 08:27:21;;;;;;;12.77;7.80;;;-0.30;99.90;;;;;;5003640;28;20223;-62
2024/01/21 08:29:48;;;;;;;13.10;9.50;;;-0.10;99.90;;;;;;5011688;28;20234;-62
2024/01/21 08:32:14;;;;;;;12.23;8.33;;;0.20;99.90;;;;;;5011233;28;20605;-62
2024/01/21 08:34:41;;;;;;;12.50;8.47;;;0.40;99.90;;;;;;5011081;28;20214;-61
2024/01/21 08:37:08;;;;;;;13.37;7.90;;;0.60;99.90;;;;;;5011174;28;20211;-61
2024/01/21 08:39:34;;;;;;;11.60;8.07;;;0.60;99.90;;;;;;5011422;28;20230;-62
2024/01/21 08:42:03;;;;;;;11.97;7.80;;;0.90;99.90;;;;;;5011392;28;20219;-62
2024/01/21 08:44:30;;;;;;;8.97;7.20;;;1.10;99.90;;;;;;5011355;28;20693;-61
2024/01/21 08:46:57;;;;;;;9.53;7.27;;;1.20;99.90;;;;;;5010694;28;20750;-62
2024/01/21 08:49:26;;;;;;;10.97;7.60;;;1.40;99.90;;;;;;5011367;28;20364;-61
2024/01/21 08:51:52;;;;;;;9.47;7.37;;;1.40;99.90;;;;;;5011241;28;20211;-61
2024/01/21 08:54:19;;;;;;;8.47;6.70;;;1.30;99.90;;;;;;5003301;28;20207;-66
2024/01/21 08:56:46;;;;;;;11.73;8.00;;;1.20;99.90;;;;;;5010771;28;20253;-61
2024/01/21 08:59:14;;;;;;;10.67;6.97;;;1.10;99.90;;;;;;5010794;28;20306;-60
2024/01/21 09:01:40;;;;;;;9.93;7.07;;;1.30;99.90;;;;;;5010824;28;20214;-60
2024/01/21 09:04:07;;;;;;;9.97;6.53;;;1.60;99.90;;;;;;5010812;28;20677;-60
2024/01/21 09:06:35;;;;;;;8.57;6.67;;;1.70;99.90;;;;;;5010559;28;20245;-60
2024/01/21 09:09:02;;;;;;;9.60;7.10;;;1.80;99.90;;;;;;5010665;28;20215;-60
2024/01/21 09:11:29;;;;;;;9.63;6.70;;;1.90;99.90;;;;;;5011052;28;20294;-61
2024/01/21 09:13:55;;;;;;;9.20;7.00;;;2.10;99.90;;;;;;5010711;28;20277;-60
2024/01/21 09:16:23;;;;;;;11.50;7.43;;;2.40;99.90;;;;;;5010804;28;20250;-60
2024/01/21 09:18:50;;;;;;;10.83;7.73;;;2.50;99.90;;;;;;5011349;28;20210;-61
2024/01/21 09:21:17;;;;;;;9.97;7.87;;;2.70;99.90;;;;;;5010847;28;20206;-62
2024/01/21 09:23:43;;;;;;;10.77;7.80;;;2.90;99.90;;;;;;5010997;28;20211;-61
2024/01/21 09:26:10;;;;;;;9.63;7.30;;;3.00;99.90;;;;;;5010405;28;20226;-61
2024/01/21 09:28:37;;;;;;;9.67;7.10;;;3.00;99.90;;;;;;5010618;28;20222;-62
2024/01/21 09:31:04;;;;;;;8.07;6.63;;;3.10;99.90;;;;;;5013579;28;20559;-61
2024/01/21 09:33:32;;;;;;;10.50;6.57;;;2.90;99.90;;;;;;5015012;28;20218;-60
2024/01/21 09:35:59;;;;;;;9.90;7.03;;;2.90;99.90;;;;;;5014597;28;20237;-62
2024/01/21 09:38:26;;;;;;;9.13;6.90;;;2.90;99.90;;;;;;5014569;28;20207;-62
2024/01/21 09:40:57;;;;;;;9.03;6.83;;;2.70;99.90;;;;;;5014579;28;20215;-61
2024/01/21 09:43:24;;;;;;;9.83;7.30;;;2.60;99.90;;;;;;5006875;28;20293;-61
2024/01/21 09:45:52;;;;;;;8.93;7.03;;;2.60;99.90;;;;;;5002586;28;20227;-67
2024/01/21 09:48:19;;;;;;;9.40;6.93;;;2.70;99.90;;;;;;5013431;28;20219;-67
2024/01/21 09:50:49;;;;;;;10.90;7.27;;;2.90;99.90;;;;;;5013934;28;20222;-63
2024/01/21 09:53:15;;;;;;;9.10;6.87;;;3.00;99.90;;;;;;5011982;28;20219;-65
2024/01/21 09:55:42;;;;;;;9.40;7.10;;;3.00;99.90;;;;;;5012266;28;20763;-69
2024/01/21 09:58:14;;;;;;;9.37;7.40;;;2.90;99.90;;;;;;5011456;28;20313;-63
2024/01/21 10:00:42;;;;;;;8.80;7.00;;;2.80;99.90;;;;;;5012080;28;20605;-65
2024/01/21 10:03:09;;;;;;;8.67;6.67;;;3.00;99.90;;;;;;5012885;28;20743;-67
2024/01/21 10:05:35;;;;;;;9.63;7.47;;;3.20;99.90;;;;;;5011753;28;20719;-64
2024/01/21 10:08:04;;;;;;;7.97;6.83;;;3.50;99.90;;;;;;5013344;28;20712;-65
2024/01/21 10:10:31;;;;;;;9.30;7.27;;;3.70;99.90;;;;;;5013461;28;20219;-65
2024/01/21 10:12:58;;;;;;;8.87;6.87;;;3.80;99.90;;;;;;5013350;28;20207;-68
2024/01/21 10:15:24;;;;;;;8.73;6.60;;;4.00;99.90;;;;;;5013798;28;20227;-69
2024/01/21 10:17:52;;;;;;;8.97;6.97;;;4.10;99.90;;;;;;5013619;28;20207;-67
2024/01/21 10:20:19;;;;;;;12.67;8.30;;;4.00;99.90;;;;;;5013342;28;20210;-67
2024/01/21 10:22:47;;;;;;;12.47;7.77;;;3.90;99.90;;;;;;5012714;28;20215;-65
2024/01/21 10:25:15;;;;;;;12.63;7.87;;;3.80;99.90;;;;;;5012441;28;20246;-66
2024/01/21 10:27:46;;;;;;;9.57;7.53;;;3.80;99.90;;;;;;5013283;28;20238;-66
2024/01/21 10:30:13;;;;;;;9.23;7.07;;;3.90;99.90;;;;;;5013441;28;20214;-67
2024/01/21 10:32:40;;;;;;;9.60;7.27;;;4.10;99.90;;;;;;5013441;28;20207;-66
2024/01/21 10:35:07;;;;;;;12.17;7.20;;;4.30;99.90;;;;;;5012487;28;20725;-66
2024/01/21 10:37:39;;;;;;;8.90;6.70;;;4.50;99.90;;;;;;5012394;28;20230;-65
2024/01/21 10:40:09;;;;;;;9.90;7.10;;;4.70;99.90;;;;;;5012952;28;20215;-66
2024/01/21 10:42:37;;;;;;;8.30;6.87;;;4.90;99.90;;;;;;5013079;28;20222;-64
2024/01/21 10:45:06;;;;;;;10.23;6.57;;;5.00;99.90;;;;;;5012837;28;20227;-64
2024/01/21 10:47:34;;;;;;;9.90;6.87;;;4.90;99.90;;;;;;5012579;28;20241;-67
2024/01/21 10:50:02;;;;;;;9.23;6.53;;;4.50;99.90;;;;;;5012321;28;20215;-65
2024/01/21 10:52:29;;;;;;;8.47;6.00;;;4.20;99.90;;;;;;5012986;28;20211;-67
2024/01/21 10:54:58;;;;;;;12.33;6.73;;;4.30;99.90;;;;;;5010706;28;20623;-67
2024/01/21 10:57:24;;;;;;;10.33;6.43;;;4.40;99.90;;;;;;5012884;28;20203;-66
2024/01/21 10:59:52;;;;;;;9.07;6.50;;;4.60;99.90;;;;;;5011559;28;20230;-65
2024/01/21 11:02:20;;;;;;;9.20;7.03;;;4.80;99.90;;;;;;5011864;28;20680;-63
2024/01/21 11:04:46;;;;;;;11.37;6.60;;;5.00;99.90;;;;;;5012487;28;20210;-65
2024/01/21 11:07:13;;;;;;;10.07;6.83;;;5.30;99.90;;;;;;5012593;28;20211;-66
2024/01/21 11:09:41;;;;;;;7.90;6.17;;;5.30;99.90;;;;;;5010157;28;20233;-66
2024/01/21 11:12:09;;;;;;;10.53;6.07;;;5.40;99.90;;;;;;5012414;28;20219;-69
2024/01/21 11:14:37;;;;;;;9.10;6.77;;;5.60;99.90;;;;;;5012238;28;20214;-66
2024/01/21 11:17:07;;;;;;;9.50;5.80;;;5.80;99.90;;;;;;5011765;28;20214;-68
2024/01/21 11:19:45;;;;;;;11.43;7.30;;;5.90;99.90;;;;;;5012367;28;20297;-62
2024/01/21 11:22:12;;;;;;;9.30;6.50;;;6.00;99.90;;;;;;5012404;28;20271;-63
2024/01/21 11:24:40;;;;;;;7.93;6.90;;;6.10;99.90;;;;;;5012472;28;20221;-62
2024/01/21 11:27:15;;;;;;;9.63;6.87;;;6.30;99.90;;;;;;5012051;28;20214;-63
2024/01/21 11:29:42;;;;;;;8.63;6.30;;;6.50;99.90;;;;;;5013042;28;20221;-62
2024/01/21 11:32:11;;;;;;;8.87;5.70;;;6.70;99.90;;;;;;5012519;28;20265;-64
2024/01/21 11:34:41;;;;;;;8.83;6.60;;;6.90;99.90;;;;;;5012146;28;20707;-64
2024/01/21 11:37:09;;;;;;;12.53;8.63;;;6.90;99.90;;;;;;5011950;28;20203;-63
2024/01/21 11:39:36;;;;;;;13.37;9.37;;;6.60;99.90;;;;;;5012138;28;20233;-63
2024/01/21 11:42:03;;;;;;;11.53;8.00;;;6.10;99.90;;;;;;5011780;28;20211;-63
2024/01/21 11:44:31;;;;;;;12.83;8.10;;;5.80;99.90;;;;;;5012243;28;20210;-63
2024/01/21 11:47:01;;;;;;;15.47;8.07;;;5.40;99.90;;;;;;5011443;28;20278;-63
2024/01/21 11:49:30;;;;;;;11.97;7.83;;;5.40;99.90;;;;;;5004340;28;20282;-62
2024/01/21 11:51:59;;;;;;;11.33;7.67;;;5.40;99.90;;;;;;5011488;28;20211;-63
2024/01/21 11:54:26;;;;;;;10.00;7.67;;;5.70;99.90;;;;;;5004004;28;20233;-63
2024/01/21 11:56:53;;;;;;;11.43;7.43;;;5.60;99.90;;;;;;5011209;28;20230;-62
2024/01/21 11:59:20;;;;;;;9.20;6.77;;;5.50;99.90;;;;;;5012106;28;20199;-64
2024/01/21 12:01:50;;;;;;;12.33;7.20;;;5.70;99.90;;;;;;5012063;28;20210;-64
2024/01/21 12:04:16;;;;;;;11.97;7.37;;;5.90;99.90;;;;;;5011277;28;20700;-64
2024/01/21 12:06:46;;;;;;;16.10;11.00;;;6.00;99.90;;;;;;5011492;28;20231;-63
2024/01/21 12:09:14;;;;;;;38.87;22.70;;;6.10;99.90;;;;;;5011512;28;20223;-64
2024/01/21 12:11:42;;;;;;;22.20;14.00;;;6.20;99.90;;;;;;5011802;28;20269;-63
2024/01/21 12:14:11;;;;;;;21.40;12.60;;;6.20;99.90;;;;;;5011832;28;20246;-63
2024/01/21 12:16:39;;;;;;;12.87;8.80;;;6.30;99.90;;;;;;5011312;28;20357;-63
2024/01/21 12:19:07;;;;;;;13.73;8.97;;;6.40;99.90;;;;;;5011517;28;20203;-63
2024/01/21 12:21:34;;;;;;;10.13;6.93;;;6.40;99.90;;;;;;5011548;28;20211;-63
2024/01/21 12:24:03;;;;;;;9.50;7.37;;;6.50;99.90;;;;;;5011605;28;20211;-63
2024/01/21 12:26:31;;;;;;;8.80;7.50;;;6.60;99.90;;;;;;5004076;28;20626;-65
2024/01/21 12:28:59;;;;;;;10.80;7.10;;;6.60;99.90;;;;;;5007285;28;20280;-64
2024/01/21 12:31:27;;;;;;;14.10;7.67;;;6.60;99.90;;;;;;5011366;28;20214;-66
2024/01/21 12:33:54;;;;;;;10.27;7.17;;;6.70;99.90;;;;;;5010761;28;20735;-64
2024/01/21 12:36:21;;;;;;;9.63;6.97;;;6.70;99.90;;;;;;5010135;28;20334;-64
2024/01/21 12:38:48;;;;;;;8.37;6.73;;;6.80;99.90;;;;;;5011409;28;20246;-65
2024/01/21 12:41:16;;;;;;;10.60;6.60;;;7.00;99.90;;;;;;5011188;28;20219;-64
2024/01/21 12:43:43;;;;;;;9.10;6.47;;;7.30;99.90;;;;;;5011063;28;20218;-65
2024/01/21 12:46:10;;;;;;;10.33;6.10;;;7.70;99.90;;;;;;5010321;28;20715;-65